createdAt,value
2022-12-04T00:02:10.928Z,26.98
2022-12-04T00:07:12.482Z,30.15
2022-12-04T00:12:14.026Z,29.67
2022-12-04T00:17:15.626Z,29.65
2022-12-04T00:22:17.093Z,27.35
2022-12-04T00:27:18.642Z,28.48
2022-12-04T00:32:20.165Z,29.63
2022-12-04T00:37:21.747Z,24.15
2022-12-04T00:42:23.263Z,28.63
2022-12-04T00:47:24.869Z,28.15
2022-12-04T00:52:28.319Z,29.05
2022-12-04T00:57:29.855Z,29.67
2022-12-04T01:02:31.615Z,27.33
2022-12-04T01:07:33.225Z,27.40
2022-12-04T01:12:35.001Z,30.38
2022-12-04T01:17:36.928Z,28.77
2022-12-04T01:22:38.486Z,28.52
2022-12-04T01:27:39.972Z,27.88
2022-12-04T01:32:41.579Z,30.80
2022-12-04T01:37:43.121Z,25.38
2022-12-04T01:42:44.636Z,30.85
2022-12-04T01:47:46.332Z,31.63
2022-12-04T01:52:47.982Z,30.63
2022-12-04T01:57:49.449Z,31.02
2022-12-04T02:02:51.089Z,30.45
2022-12-04T02:07:57.607Z,27.83
2022-12-04T02:13:07.303Z,30.55
2022-12-04T02:18:12.625Z,29.85
2022-12-04T02:23:20.906Z,26.20
2022-12-04T02:28:38.553Z,30.45
2022-12-04T02:33:52.488Z,30.48
2022-12-04T02:39:06.943Z,30.27
2022-12-04T02:44:17.564Z,30.77
2022-12-04T02:49:25.245Z,28.83
2022-12-04T02:54:41.403Z,38.65
2022-12-04T02:59:45.511Z,33.10
2022-12-04T03:04:50.796Z,33.72
2022-12-04T03:09:56.639Z,33.92
2022-12-04T03:15:02.979Z,34.05
2022-12-04T03:20:10.930Z,32.13
2022-12-04T03:25:13.892Z,33.78
2022-12-04T03:30:21.845Z,34.42
2022-12-04T03:35:29.464Z,31.77
2022-12-04T03:40:54.203Z,33.08
2022-12-04T03:46:08.534Z,32.83
2022-12-04T03:51:47.488Z,33.97
2022-12-04T03:56:53.280Z,35.53
2022-12-04T04:01:59.589Z,34.08
2022-12-04T04:07:37.947Z,29.55
2022-12-04T04:13:11.593Z,34.15
2022-12-04T04:18:31.711Z,35.03
2022-12-04T04:24:05.065Z,22.85
2022-12-04T04:29:06.519Z,32.88
2022-12-04T04:34:29.261Z,32.63
2022-12-04T04:39:45.560Z,28.83
2022-12-04T04:45:02.210Z,36.20
2022-12-04T04:50:07.080Z,33.08
2022-12-04T04:55:09.415Z,34.33
2022-12-04T05:00:14.888Z,34.85
2022-12-04T05:05:18.566Z,33.47
2022-12-04T05:10:20.045Z,33.22
2022-12-04T05:15:21.565Z,35.40
2022-12-04T05:20:23.093Z,32.53
2022-12-04T05:25:25.323Z,32.92
2022-12-04T05:30:26.858Z,35.80
2022-12-04T05:35:28.354Z,34.53
2022-12-04T05:40:29.833Z,34.05
2022-12-04T05:45:31.312Z,28.98
2022-12-04T05:50:32.771Z,34.17
2022-12-04T05:55:34.355Z,34.25
2022-12-04T06:00:36.031Z,36.45
2022-12-04T06:05:37.529Z,35.88
2022-12-04T06:10:39.179Z,33.80
2022-12-04T06:15:40.994Z,35.15
2022-12-04T06:20:42.758Z,34.83
2022-12-04T06:25:44.740Z,34.70
2022-12-04T06:30:46.247Z,33.88
2022-12-04T06:35:47.719Z,36.42
2022-12-04T06:40:49.258Z,36.17
2022-12-04T06:46:01.031Z,30.15
2022-12-04T06:51:06.911Z,34.92
2022-12-04T06:56:11.399Z,32.08
2022-12-04T07:01:17.533Z,32.08
2022-12-04T07:06:29.008Z,30.98
2022-12-04T07:11:30.796Z,32.47
2022-12-04T07:16:39.889Z,35.42
2022-12-04T07:21:43.115Z,32.85
2022-12-04T07:26:45.327Z,32.90
2022-12-04T07:31:46.856Z,37.33
2022-12-04T07:36:48.349Z,37.60
2022-12-04T07:41:50.449Z,36.75
2022-12-04T07:46:51.955Z,35.70
2022-12-04T07:51:53.427Z,31.65
2022-12-04T07:56:55.079Z,34.22
2022-12-04T08:01:56.648Z,33.63
2022-12-04T08:06:58.244Z,37.08
2022-12-04T08:11:59.715Z,34.67
2022-12-04T08:17:01.243Z,35.28
2022-12-04T08:22:02.845Z,35.20
2022-12-04T08:27:04.420Z,28.55
2022-12-04T08:32:06.116Z,34.53
2022-12-04T08:37:07.712Z,34.50
2022-12-04T08:42:09.200Z,32.30
2022-12-04T08:47:10.795Z,29.45
2022-12-04T08:52:12.327Z,28.52
2022-12-04T08:57:13.827Z,32.92
2022-12-04T09:02:16.739Z,31.67
2022-12-04T09:07:18.232Z,31.13
2022-12-04T09:12:19.803Z,28.90
2022-12-04T09:17:21.319Z,30.40
2022-12-04T09:22:23.600Z,26.77
2022-12-04T09:27:26.009Z,28.67
2022-12-04T09:32:27.573Z,22.88
2022-12-04T09:37:29.101Z,27.77
2022-12-04T09:42:58.801Z,23.58
2022-12-04T09:48:01.765Z,26.23
2022-12-04T09:53:10.084Z,25.55
2022-12-04T09:58:23.687Z,22.42
2022-12-04T10:03:28.324Z,20.10
2022-12-04T10:08:37.625Z,20.45
2022-12-04T10:14:03.311Z,18.00
2022-12-04T10:19:34.187Z,17.75
2022-12-04T10:24:38.310Z,18.45
2022-12-04T10:29:43.374Z,20.90
2022-12-04T10:34:46.125Z,20.10
2022-12-04T10:40:09.873Z,22.35
2022-12-04T10:45:12.811Z,20.83
2022-12-04T10:50:17.184Z,21.05
2022-12-04T10:55:35.823Z,20.35
2022-12-04T11:00:37.354Z,21.50
2022-12-04T11:05:46.363Z,24.20
2022-12-04T11:10:59.201Z,28.80
2022-12-04T11:16:00.890Z,21.85
2022-12-04T11:21:07.481Z,25.25
2022-12-04T11:26:10.025Z,22.10
2022-12-04T11:31:22.293Z,23.90
2022-12-04T11:36:41.499Z,22.08
2022-12-04T11:41:43.332Z,22.65
2022-12-04T11:46:55.869Z,20.63
2022-12-04T11:52:27.968Z,23.33
2022-12-04T11:57:51.576Z,24.15
2022-12-04T12:03:16.475Z,24.27
2022-12-04T12:08:41.468Z,29.08
2022-12-04T12:14:08.568Z,31.90
2022-12-04T12:19:31.532Z,27.17
2022-12-04T12:25:11.969Z,30.35
2022-12-04T12:30:20.474Z,32.25
2022-12-04T12:35:29.852Z,27.98
2022-12-04T12:40:43.033Z,32.67
2022-12-04T12:45:47.589Z,36.35
2022-12-04T12:51:14.754Z,33.67
2022-12-04T12:56:18.083Z,29.55
2022-12-04T13:01:24.540Z,31.23
2022-12-04T13:06:35.982Z,29.15
2022-12-04T13:11:38.629Z,30.73
2022-12-04T13:16:48.390Z,27.35
2022-12-04T13:22:04.660Z,32.20
2022-12-04T13:27:17.697Z,31.38
2022-12-04T13:32:37.956Z,36.90
2022-12-04T13:38:17.966Z,23.77
2022-12-04T13:43:27.631Z,18.60
2022-12-04T13:48:40.188Z,22.10
2022-12-04T13:53:43.579Z,20.20
2022-12-04T13:58:45.174Z,17.80
2022-12-04T14:03:50.504Z,19.40
2022-12-04T14:08:58.404Z,20.15
2022-12-04T14:19:30.046Z,17.27
2022-12-04T14:24:39.312Z,18.05
2022-12-04T14:29:52.120Z,18.08
2022-12-04T14:34:55.054Z,15.57
2022-12-04T14:39:58.533Z,16.30
2022-12-04T14:45:02.495Z,17.58
2022-12-04T14:50:20.641Z,16.55
2022-12-04T15:00:34.292Z,14.63
2022-12-04T15:05:35.766Z,17.38
2022-12-04T15:10:57.356Z,16.90
2022-12-04T15:16:09.065Z,15.07
2022-12-04T15:21:11.619Z,13.82
2022-12-04T15:26:18.761Z,13.75
2022-12-04T15:31:47.052Z,15.20
2022-12-04T15:42:24.676Z,12.90
2022-12-04T15:47:30.877Z,14.25
2022-12-04T15:52:32.502Z,15.70
2022-12-04T15:57:49.763Z,12.18
2022-12-04T16:02:51.623Z,12.97
2022-12-04T16:07:58.911Z,12.60
2022-12-04T16:13:03.944Z,13.95
2022-12-04T16:18:07.259Z,13.80
2022-12-04T16:23:09.559Z,15.90
2022-12-04T16:28:11.019Z,15.10
2022-12-04T16:33:15.731Z,15.23
2022-12-04T16:38:17.814Z,16.38
2022-12-04T16:43:19.479Z,17.40
2022-12-04T16:48:21.189Z,16.38
2022-12-04T16:53:22.889Z,16.13
2022-12-04T16:58:24.455Z,17.73
2022-12-04T17:03:31.072Z,15.30
2022-12-04T17:08:33.083Z,18.30
2022-12-04T17:13:34.551Z,22.25
2022-12-04T17:18:36.106Z,20.15
2022-12-04T17:23:37.666Z,19.83
2022-12-04T17:28:39.784Z,20.75
2022-12-04T17:33:43.476Z,19.83
2022-12-04T17:38:44.977Z,23.02
2022-12-04T17:43:46.949Z,24.92
2022-12-04T17:48:49.179Z,22.70
2022-12-04T17:53:51.413Z,23.00
2022-12-04T17:58:53.705Z,24.42
2022-12-04T18:04:01.795Z,21.83
2022-12-04T18:09:05.056Z,22.05
2022-12-04T18:14:14.049Z,20.10
2022-12-04T18:19:15.541Z,20.15
2022-12-04T18:24:17.900Z,21.17
2022-12-04T18:29:22.292Z,20.17
2022-12-04T18:34:23.771Z,21.17
2022-12-04T18:39:25.836Z,19.98
2022-12-04T18:44:27.462Z,17.38
2022-12-04T18:49:28.968Z,19.75
2022-12-04T18:54:30.433Z,24.00
2022-12-04T18:59:33.022Z,22.60
2022-12-04T19:04:34.647Z,21.85
2022-12-04T19:10:09.374Z,20.83
2022-12-04T19:14:57.679Z,20.27
2022-12-04T19:19:59.530Z,21.10
2022-12-04T19:25:01.668Z,23.08
2022-12-04T19:30:04.225Z,23.63
2022-12-04T19:35:05.967Z,19.92
2022-12-04T19:40:07.874Z,22.60
2022-12-04T19:45:09.717Z,22.40
2022-12-04T19:50:11.461Z,22.33
2022-12-04T19:55:13.211Z,20.63
2022-12-04T20:00:14.878Z,22.17
2022-12-04T20:05:16.393Z,20.63
2022-12-04T20:10:18.032Z,18.92
2022-12-04T20:15:19.632Z,20.00
2022-12-04T20:20:21.150Z,19.35
2022-12-04T20:25:22.720Z,19.98
2022-12-04T20:30:24.301Z,23.05
2022-12-04T20:35:25.851Z,22.13
2022-12-04T20:40:27.339Z,24.73
2022-12-04T20:45:30.152Z,24.50
2022-12-04T20:50:32.165Z,24.63
2022-12-04T20:55:33.607Z,24.63
2022-12-04T21:00:35.210Z,24.00
2022-12-04T21:05:36.708Z,22.13
2022-12-04T21:10:38.285Z,22.05
2022-12-04T21:15:58.269Z,22.15
2022-12-04T21:21:01.721Z,17.58
2022-12-04T21:26:03.518Z,20.80
2022-12-04T21:31:06.253Z,18.92
2022-12-04T21:36:09.725Z,17.58
2022-12-04T21:41:31.600Z,20.02
2022-12-04T21:46:33.206Z,19.00
2022-12-04T21:56:57.720Z,22.48
2022-12-04T22:02:01.168Z,21.20
2022-12-04T22:07:02.884Z,22.13
2022-12-04T22:12:20.264Z,22.05
2022-12-04T22:17:29.542Z,22.42
2022-12-04T22:22:31.087Z,21.38
2022-12-04T22:27:32.536Z,22.73
2022-12-04T22:32:34.316Z,22.98
2022-12-04T22:37:41.117Z,23.13
2022-12-04T22:42:45.592Z,23.02
2022-12-04T22:47:47.128Z,22.75
2022-12-04T22:52:48.674Z,22.23
2022-12-04T22:57:50.172Z,21.80
2022-12-04T23:02:51.816Z,22.15
2022-12-04T23:07:53.456Z,22.73
2022-12-04T23:12:54.968Z,22.02
2022-12-04T23:17:56.500Z,21.88
2022-12-04T23:22:59.300Z,22.27
2022-12-04T23:28:00.886Z,21.65
2022-12-04T23:33:02.422Z,22.35
2022-12-04T23:38:03.990Z,21.58
2022-12-04T23:43:05.540Z,21.70
2022-12-04T23:48:07.080Z,22.48
2022-12-04T23:53:08.549Z,21.20
2022-12-04T23:58:10.071Z,19.67
